默认 日期 大小 文件数 浏览量 最新下载 xml
of feet磁力链接相关资源由用户搜索指令自动获取,结果来源于网络,本站不存储任何资料,亦不承担任何责任,请于24小时内删除,搜索到413个磁力,用时34ms。
    {"atkgfs.16.03.27.jade.nile.4k.mp4": 3587696514}
创建时间: 2019-08-09 00:14:05 大小:3.34 GB 文件数量:1 热度:29 最近下载:2025-03-10 14:36:01
    {"Erotic Book Of Legs & Feet (2010) [DVDRip][WwW.xXxViCiOsAsZT.CoM][CD1].avi": 732112896, "Erotic Book Of Legs & Feet (2010) [DVDRip][WwW.xXxViCiOsAsZT.CoM][CD2].avi": 729569280}
创建时间: 2019-08-09 00:59:47 大小:1.36 GB 文件数量:2 热度:3 最近下载:2021-06-17 16:25:58
    {"Screens": {"screen0001.png": 299770, "screen0002.png": 523212, "screen0003.png": 500992, "screen0004.png": 284674}, "tvmaze.nfo": 2105, "[TGx]Downloaded from torrentgalaxy.to .txt": 689, "my.life.is.murder.s01e05.hdtv.x264-fqm.mkv": 250513186}
创建时间: 2019-08-20 03:05:39 大小:240.44 MB 文件数量:7 热度:10 最近下载:2025-09-19 15:44:04
    {"fotosd.mp4": 264454567, "poster.jpg": 74675, "screens.jpg": 144753, "RARBG.com.txt": 33}
创建时间: 2019-08-22 08:22:56 大小:252.41 MB 文件数量:4 热度:20 最近下载:2024-12-26 03:39:02
    {"poster.jpg": 30904, "screens.jpg": 251932, "21foot720.mp4": 407236651, "RARBG.com.txt": 33}
创建时间: 2019-08-24 01:10:11 大小:388.64 MB 文件数量:4 热度:9 最近下载:2025-04-28 09:51:01
    {"Sample": {"ktr.ftb.12.06.03.vicki.chase.backstage.of.fix.my.feet.wmv": 67138308}, "RARBG.com.txt": 34, "ktr.ftb.12.06.03.vicki.chase.backstage.of.fix.my.feet.nfo": 6990, "ktr.ftb.12.06.03.vicki.chase.backstage.of.fix.my.feet.wmv": 1400298256}
创建时间: 2019-08-27 21:17:30 大小:1.37 GB 文件数量:4 热度:20 最近下载:2025-08-31 13:49:02
    ... Sun.mp3": 12573465, "01. Speed of Evil.mp3": 9757465, "09. Eye ... Eye.mp3": 8679132, "12. Land of Murder.mp3": 9027084, "04. Lockdown ...
创建时间: 2019-08-29 04:41:16 大小:121.33 MB 文件数量:13 热度:5 最近下载:2024-05-30 02:37:01
    ... , "My.Life.is.Murder.S01E05.Feet.of.Clay.720p.AMZN.WEB-DL ... , "My.Life.is.Murder.S01E05.Feet.of.Clay.720p.AMZN.WEB-DL ...
创建时间: 2019-10-01 03:27:40 大小:1.23 GB 文件数量:7 热度:9 最近下载:2025-09-15 12:53:10
    {"01-1.jpg": 64728, "01-2.jpg": 132570, "01-Barefoot Confidential 41.rmvb": 346719250, "ħ��@38.100.22.210 [email protected]": 943}
创建时间: 2019-10-01 04:50:56 大小:330.85 MB 文件数量:4 热度:8 最近下载:2025-02-15 10:57:02
    {"poster.jpg": 30904, "screens.jpg": 251932, "21foot720.mp4": 407236651}
创建时间: 2019-10-03 16:32:37 大小:388.64 MB 文件数量:3 热度:7 最近下载:2024-08-24 09:11:01
    ... Head.mp3": 6047912, "06. Bringer of Blood.mp3": 4175246, "09. Blind ...
创建时间: 2019-10-04 07:29:38 大小:64.33 MB 文件数量:14 热度:4 最近下载:2022-11-12 10:20:40
    {"FutileStruggles.I.Get.600.Feet.Of.Rope.And.A.Serene.For.My.Birthday-Part.2.XXX.HR.WMV-hUSHhUSH.wmv": 503421279, "futilestruggles.i.get.600.feet.of.rope.and.a.serene.for.my.birthday-part.2.xxx.hr.wmv-hushhush.nfo": 20242}
创建时间: 2019-10-05 10:23:13 大小:480.12 MB 文件数量:2 热度:12 最近下载:2024-11-07 18:57:01
    {"poster.jpg": 25851, "screens.jpg": 496279, "21fa.14.09.06.ria.rodrigez.feet.of.a.dancer.mp4": 1219545861}
创建时间: 2019-10-11 18:09:42 大小:1.14 GB 文件数量:3 热度:5 最近下载:2022-11-15 18:48:13
    {"folder.jpg": 226167, "02 - Path.mp3": 26886326, "01 - Nostrigoi.mp3": 25745307, "03 - The Trough.mp3": 28096330, "04 - A Sinless Soul.mp3": 14138591, "06 - Decipher the Lie.mp3": 21978464, "05 - Curator of the Wicked.mp3": 22243878}
创建时间: 2019-10-14 04:40:48 大小:132.86 MB 文件数量:7 热度:5 最近下载:2022-11-12 10:47:25
    ... .S01E02.1080p.HDTV.x264-FEET.mkv": 2475375824, "secrets.of.the.national.trust ... .s01e02.1080p.hdtv.x264-feet.nfo": 833 ...
创建时间: 2019-10-22 13:34:56 大小:2.32 GB 文件数量:7 热度:5 最近下载:2024-12-17 04:28:01
    {"Free Games.txt": 56, "Hide Your IP Address and Location.txt": 254, "Torrent Seed by www.Cyber-Planet.in.txt": 517, "Torrent Downloaded From ExtraTorrent.cc.txt": 351, "Elsa Jean Gets Explosion Of Cum All Over Her Feet.mp4": 231651443}
创建时间: 2019-10-26 02:39:20 大小:220.92 MB 文件数量:5 热度:14 最近下载:2025-01-20 08:27:04
    ... Satisfied.mp3": 11885473, "08. Flash of the Blade.mp3": 9956594, "09 ...
创建时间: 2019-10-26 05:59:16 大小:119.79 MB 文件数量:12 热度:9 最近下载:2025-09-15 16:11:12
创建时间: 2019-10-26 18:51:31 大小:220.92 MB 文件数量:1 热度:11 最近下载:2025-02-11 01:55:03
    {"1006AG_FootWorship.wmv": 301788941, "Torrent downloaded from PornLeech.com.nfo": 46}
创建时间: 2019-10-30 15:20:29 大小:287.81 MB 文件数量:2 热度:14 最近下载:2025-05-28 14:24:01
    ... Satisfied.mp3": 11956513, "08. Flash of the Blade.mp3": 10027637, "09 ...
创建时间: 2019-11-17 22:35:40 大小:121 MB 文件数量:16 热度:10 最近下载:2025-09-12 14:03:25